Terminal Aerodrome Forecast
Issued by NWS Shreveport, LA

Home | Current Version | Previous Version | Text Only | Print | Product List | Glossary On
Versions: 1 2 3 4 5 6 7 8 9 10 11 12
000
FTUS44 KSHV 261120
TAFSHV
TAF
KSHV 261120Z 2612/2712 11005KT P6SM FEW080 SCT250
     FM261500 15010KT P6SM SCT100 SCT250
     FM270000 15011KT P6SM SCT040 BKN070
     FM270200 15007KT P6SM VCTS OVC040CB
     FM270500 15007KT 3SM TSRA BR SCT020 BKN040CB=

USA.gov is the U.S. government's official web portal to all federal, state and local government web resources and services.